KLJ6412 LEMH-EGNX
Flight info
| Callsign | KLJ6412 |
|---|---|
| Flight time | N/A |
| Altitude | 38000 |
| Route | MEROS DCT LAPIT DCT CHELY DCT LUMAS DCT SOFFY DCT MRM DCT MTL DCT ETREK DCT MADOT DCT MOPEM DCT CACHI DCT AVLON DCT OKRIX DCT BRY DCT CLM DCT KOPOR DCT ABNUR DCT DIMAL DCT ALESO T420 HEMEL |
| Aircraft | A319/M-SDE3FGHIRWY/LB1 |
Departure
| Time | 2026-04-28 15:39 |
|---|---|
| Airport | Menorca Airport (LEMH) |
Arrival
| Time | N/A |
|---|---|
| Airport | East Midlands Airport (EGNX) |
| Time | Latitude | Longitude | Altitude | Speed | Heading |
|---|---|---|---|---|---|
| 2026-04-28 15:22 | 39.86464 | 4.22405 | 295 ft | 0 kts | 100° |
| 2026-04-28 15:31 | 39.86467 | 4.22381 | 296 ft | 4 kts | 105° |
| 2026-04-28 15:31 | 39.86477 | 4.22349 | 296 ft | 4 kts | 124° |
| 2026-04-28 15:31 | 39.86494 | 4.22327 | 299 ft | 4 kts | 171° |
| 2026-04-28 15:32 | 39.86494 | 4.22325 | 298 ft | 4 kts | 184° |
| 2026-04-28 15:32 | 39.86477 | 4.22320 | 296 ft | 4 kts | 193° |
| 2026-04-28 15:32 | 39.86467 | 4.22318 | 297 ft | 0 kts | 189° |
| 2026-04-28 15:34 | 39.86449 | 4.22314 | 295 ft | 5 kts | 189° |
| 2026-04-28 15:34 | 39.86390 | 4.22302 | 298 ft | 14 kts | 189° |
| 2026-04-28 15:34 | 39.86284 | 4.22281 | 295 ft | 17 kts | 189° |
| 2026-04-28 15:34 | 39.86195 | 4.22253 | 299 ft | 10 kts | 217° |
| 2026-04-28 15:35 | 39.86190 | 4.22155 | 295 ft | 13 kts | 279° |
| 2026-04-28 15:35 | 39.86023 | 4.22056 | 296 ft | 18 kts | 189° |
| 2026-04-28 15:35 | 39.85892 | 4.22028 | 299 ft | 21 kts | 189° |
| 2026-04-28 15:36 | 39.85740 | 4.21997 | 297 ft | 23 kts | 189° |
| 2026-04-28 15:36 | 39.85593 | 4.21966 | 293 ft | 24 kts | 189° |
| 2026-04-28 15:36 | 39.85416 | 4.21930 | 290 ft | 28 kts | 189° |
| 2026-04-28 15:36 | 39.85215 | 4.21889 | 283 ft | 22 kts | 188° |
| 2026-04-28 15:37 | 39.85130 | 4.21839 | 283 ft | 5 kts | 252° |
| 2026-04-28 15:37 | 39.85133 | 4.21785 | 283 ft | 7 kts | 278° |
| 2026-04-28 15:37 | 39.85141 | 4.21717 | 284 ft | 8 kts | 279° |
| 2026-04-28 15:37 | 39.85148 | 4.21668 | 287 ft | 9 kts | 279° |
| 2026-04-28 15:38 | 39.85186 | 4.21646 | 287 ft | 0 kts | 7° |
| 2026-04-28 15:39 | 39.85340 | 4.21676 | 287 ft | 66 kts | 9° |
| 2026-04-28 15:39 | 39.86102 | 4.21835 | 300 ft | 154 kts | 9° |
| 2026-04-28 15:39 | 39.87227 | 4.22059 | 1011 ft | 164 kts | 14° |
| 2026-04-28 15:39 | 39.88369 | 4.22298 | 1892 ft | 170 kts | 12° |
| 2026-04-28 15:40 | 39.89615 | 4.22569 | 2398 ft | 195 kts | 12° |
| 2026-04-28 15:40 | 39.91036 | 4.22880 | 2999 ft | 220 kts | 13° |
| 2026-04-28 15:40 | 39.92630 | 4.23239 | 3653 ft | 245 kts | 13° |
| 2026-04-28 15:40 | 39.94390 | 4.23651 | 4427 ft | 266 kts | 12° |